Time;durP1;ratioP1;P1;durP2;ratioP2;P2;SDS_P1;SDS_P2;PMS_P1;PMS_P2;Temp;Humidity;BMP_temperature;BMP_pressure;BME280_temperature;BME280_humidity;BME280_pressure;Samples;Min_cycle;Max_cycle;Signal;HPM_P1;HPM_P2
2023/03/16 00:02:18;;;;;;;0.22;0.22;;;;;;;18.55;44.17;101554.38;5078183;28;20043;-37
2023/03/16 00:04:46;;;;;;;0.30;0.30;;;;;;;18.55;44.10;101546.94;5095959;28;20485;-37
2023/03/16 00:07:13;;;;;;;0.20;0.20;;;;;;;18.56;44.21;101550.53;5097146;28;20047;-37
2023/03/16 00:09:39;;;;;;;0.30;0.30;;;;;;;18.55;44.16;101544.19;5096548;28;20047;-37
2023/03/16 00:12:14;;;;;;;0.30;0.30;;;;;;;18.55;44.03;101532.31;5078312;28;20427;-37
2023/03/16 00:14:42;;;;;;;0.30;0.30;;;;;;;18.55;44.16;101527.63;5086616;28;20236;-37
2023/03/16 00:17:09;;;;;;;;;;;;;;;18.55;43.98;101529.56;5093248;28;20090;-37
2023/03/16 00:19:34;;;;;;;0.30;0.30;;;;;;;18.54;44.03;101519.63;5096684;28;20060;-37
2023/03/16 00:22:00;;;;;;;0.30;0.30;;;;;;;18.54;44.04;101517.69;5096883;28;20523;-37
2023/03/16 00:24:26;;;;;;;0.30;0.30;;;;;;;18.54;44.20;101522.38;5096516;28;20398;-37
2023/03/16 00:26:53;;;;;;;0.30;0.30;;;;;;;18.53;44.01;101516.03;5095439;28;20087;-37
2023/03/16 00:29:21;;;;;;;0.30;0.30;;;;;;;18.54;43.99;101523.22;5096479;28;20044;-37
2023/03/16 00:31:47;;;;;;;0.32;0.32;;;;;;;18.54;44.08;101525.97;5076756;28;20052;-37
2023/03/16 00:34:14;;;;;;;0.20;0.20;;;;;;;18.53;44.14;101527.06;5095993;28;20048;-37
2023/03/16 00:36:41;;;;;;;0.30;0.30;;;;;;;18.54;44.00;101528.72;5096448;28;20051;-37
2023/03/16 00:39:07;;;;;;;0.30;0.30;;;;;;;18.54;43.80;101527.91;5080891;28;20048;-37
2023/03/16 00:41:36;;;;;;;0.30;0.30;;;;;;;18.55;44.13;101535.06;5094881;28;20058;-37
2023/03/16 00:44:03;;;;;;;0.30;0.30;;;;;;;18.54;44.08;101528.72;5096381;28;20120;-37
2023/03/16 00:46:29;;;;;;;0.30;0.30;;;;;;;18.54;44.15;101528.72;5096069;28;20047;-37
2023/03/16 00:48:55;;;;;;;0.30;0.30;;;;;;;18.54;44.18;101520.44;5078201;28;20161;-38
2023/03/16 00:51:21;;;;;;;0.20;0.20;;;;;;;18.53;44.19;101518.78;5077206;28;20101;-37
2023/03/16 00:53:48;;;;;;;0.30;0.30;;;;;;;18.53;44.26;101521.56;5096108;28;20044;-37
2023/03/16 00:56:14;;;;;;;0.30;0.30;;;;;;;18.53;44.00;101521.56;5078076;28;20085;-37
2023/03/16 00:58:41;;;;;;;0.25;0.25;;;;;;;18.53;44.14;101516.03;5095667;28;20047;-37
2023/03/16 01:01:10;;;;;;;0.30;0.30;;;;;;;18.53;43.99;101510.53;5086146;28;20453;-37
2023/03/16 01:03:36;;;;;;;0.30;0.30;;;;;;;18.53;44.00;101505.00;5097732;28;20092;-37
2023/03/16 01:06:05;;;;;;;0.30;0.30;;;;;;;18.54;44.13;101506.66;5096687;28;20043;-37
2023/03/16 01:08:31;;;;;;;0.30;0.30;;;;;;;18.53;44.20;101485.69;5098731;28;20067;-37
2023/03/16 01:11:06;;;;;;;0.30;0.30;;;;;;;18.54;44.18;101490.09;5076937;28;20558;-37
2023/03/16 01:13:32;;;;;;;0.20;0.20;;;;;;;18.53;44.14;101487.63;5095798;28;20344;-37
2023/03/16 01:15:59;;;;;;;0.20;0.20;;;;;;;18.53;43.99;101480.19;5081387;28;20051;-36
2023/03/16 01:18:25;;;;;;;0.28;0.28;;;;;;;18.54;43.90;101481.00;5076944;28;20384;-37
2023/03/16 01:20:52;;;;;;;0.30;0.30;;;;;;;18.53;44.04;101482.09;5096056;28;20048;-37
2023/03/16 01:23:19;;;;;;;0.22;0.22;;;;;;;18.54;43.88;101483.75;5095862;28;20483;-37
2023/03/16 01:25:51;;;;;;;0.30;0.30;;;;;;;18.53;43.99;101471.91;5095561;28;20047;-37
2023/03/16 01:28:23;;;;;;;0.30;0.30;;;;;;;18.52;44.15;101467.50;5094217;28;20419;-37
2023/03/16 01:30:52;;;;;;;0.30;0.30;;;;;;;18.54;44.00;101476.31;5095319;28;20658;-37
2023/03/16 01:33:20;;;;;;;0.30;0.30;;;;;;;18.53;44.25;101473.84;5094161;28;20043;-37
2023/03/16 01:35:56;;;;;;;0.20;0.20;;;;;;;18.53;44.25;101460.03;5094056;28;20051;-37
2023/03/16 01:38:21;;;;;;;0.30;0.30;;;;;;;18.52;44.18;101456.47;5080419;28;20043;-37
2023/03/16 01:40:50;;;;;;;0.30;0.30;;;;;;;18.52;44.19;101453.69;5094258;28;20054;-37
2023/03/16 01:43:17;;;;;;;0.30;0.30;;;;;;;18.53;44.19;101454.53;5060970;28;20040;-37
2023/03/16 01:48:45;;;;;;;0.20;0.20;;;;;;;18.52;44.05;101439.03;5174083;27;20120;-37
2023/03/16 01:51:20;;;;;;;0.30;0.30;;;;;;;18.52;44.13;101445.44;5152562;27;20046;-37
2023/03/16 01:53:47;;;;;;;0.30;0.30;;;;;;;18.53;44.28;101440.72;5135573;27;20073;-37
2023/03/16 01:56:18;;;;;;;0.30;0.30;;;;;;;18.53;44.10;101440.72;5134893;27;20065;-37
2023/03/16 01:58:44;;;;;;;0.20;0.20;;;;;;;18.52;44.05;101434.38;5156120;27;20043;-37
2023/03/16 02:01:12;;;;;;;0.40;0.40;;;;;;;18.52;44.03;101439.91;5153121;27;20084;-37
2023/03/16 02:03:38;;;;;;;0.30;0.30;;;;;;;18.52;44.19;101441.81;5152797;27;20049;-37
2023/03/16 02:06:09;;;;;;;0.20;0.20;;;;;;;18.51;44.10;101440.97;5117273;27;20417;-37
2023/03/16 02:08:36;;;;;;;0.30;0.30;;;;;;;18.52;44.22;101439.03;5152669;27;20093;-37
2023/03/16 02:11:03;;;;;;;0.30;0.30;;;;;;;18.51;44.20;101426.34;5133570;27;20042;-37
2023/03/16 02:13:32;;;;;;;0.20;0.20;;;;;;;18.52;44.00;101439.03;5134681;27;20567;-37
2023/03/16 02:15:58;;;;;;;0.40;0.40;;;;;;;18.52;44.25;101433.53;5134102;27;20085;-37
2023/03/16 02:18:24;;;;;;;0.30;0.30;;;;;;;18.52;44.31;101430.78;5152209;27;20078;-37
2023/03/16 02:20:57;;;;;;;0.30;0.30;;;;;;;18.52;44.07;101419.75;5152716;27;20430;-37
2023/03/16 02:23:24;;;;;;;0.20;0.20;;;;;;;18.51;44.27;101415.31;5153269;27;20107;-37
2023/03/16 02:26:00;;;;;;;0.30;0.30;;;;;;;18.52;44.03;101416.97;5152614;27;20070;-37
2023/03/16 02:28:47;;;;;;;0.30;0.30;;;;;;;18.51;44.31;101410.63;5133040;27;20049;-37
2023/03/16 02:31:13;;;;;;;0.30;0.30;;;;;;;18.52;44.25;101405.94;5147854;27;20043;-37
2023/03/16 02:33:39;;;;;;;0.30;0.30;;;;;;;18.52;44.10;101401.28;5131733;27;20063;-37
2023/03/16 02:36:05;;;;;;;0.30;0.30;;;;;;;18.52;44.22;101392.16;5131981;27;20047;-37
2023/03/16 02:38:31;;;;;;;0.30;0.30;;;;;;;18.51;44.16;101396.03;5131596;27;20047;-37
2023/03/16 02:41:00;;;;;;;0.30;0.30;;;;;;;18.51;44.01;101385.81;5130368;27;20051;-37
2023/03/16 02:43:32;;;;;;;0.30;0.30;;;;;;;18.51;44.07;101390.50;5117962;27;20849;-37
2023/03/16 02:45:59;;;;;;;0.30;0.30;;;;;;;18.51;44.15;101391.34;5113598;27;20054;-37
2023/03/16 02:48:31;;;;;;;0.30;0.30;;;;;;;18.53;44.04;101391.09;5095704;27;20142;-37
2023/03/16 02:50:57;;;;;;;0.30;0.30;;;;;;;18.52;44.32;101383.88;5130652;27;20058;-37
2023/03/16 02:53:22;;;;;;;0.30;0.30;;;;;;;18.52;44.25;101378.38;5095861;27;20050;-37
2023/03/16 02:55:48;;;;;;;0.43;0.43;;;;;;;18.51;44.24;101377.53;5127450;27;20039;-37
2023/03/16 02:58:14;;;;;;;0.30;0.30;;;;;;;18.51;44.40;101382.22;5124996;27;20107;-37
2023/03/16 03:00:41;;;;;;;0.30;0.30;;;;;;;18.52;44.25;101372.84;5099380;28;20047;-37
2023/03/16 03:03:08;;;;;;;0.35;0.35;;;;;;;18.51;44.21;101365.69;5109865;28;20405;-37
2023/03/16 03:05:35;;;;;;;0.30;0.30;;;;;;;18.51;44.09;101363.75;5097374;28;20089;-37
2023/03/16 03:08:00;;;;;;;0.30;0.30;;;;;;;18.51;44.28;101354.66;5074814;28;20077;-37
2023/03/16 03:10:26;;;;;;;0.30;0.30;;;;;;;18.51;44.22;101355.47;5117005;28;20055;-37
2023/03/16 03:12:52;;;;;;;0.30;0.30;;;;;;;18.50;44.13;101351.06;5116251;28;20422;-37
2023/03/16 03:15:18;;;;;;;0.30;0.30;;;;;;;18.51;44.25;101354.66;5117152;28;20494;-37
2023/03/16 03:17:45;;;;;;;0.30;0.30;;;;;;;18.51;44.15;101354.66;5096133;28;20290;-36
2023/03/16 03:20:15;;;;;;;0.30;0.30;;;;;;;18.50;44.28;101359.34;5115190;28;20036;-37
2023/03/16 03:22:43;;;;;;;0.30;0.30;;;;;;;18.51;44.31;101361.00;5099785;28;20039;-37
2023/03/16 03:25:09;;;;;;;;;;;;;;;18.50;44.25;101356.59;5083647;28;20067;-37
2023/03/16 03:27:35;;;;;;;0.30;0.30;;;;;;;18.50;44.22;101351.06;5116961;28;20041;-37
2023/03/16 03:30:01;;;;;;;0.30;0.30;;;;;;;18.50;44.26;101351.06;5117488;28;20053;-37
2023/03/16 03:32:26;;;;;;;0.30;0.30;;;;;;;18.51;44.38;101351.91;5117223;27;20047;-37
2023/03/16 03:34:52;;;;;;;0.30;0.30;;;;;;;18.51;44.19;101351.91;5117141;28;20057;-37
2023/03/16 03:37:18;;;;;;;0.30;0.30;;;;;;;18.50;44.32;101347.47;5116045;28;20039;-37
2023/03/16 03:39:44;;;;;;;0.30;0.30;;;;;;;18.51;44.31;101354.66;5116489;28;20209;-37
2023/03/16 03:42:10;;;;;;;0.30;0.30;;;;;;;18.50;44.19;101350.22;5098561;28;20520;-37
2023/03/16 03:44:36;;;;;;;0.30;0.30;;;;;;;18.51;44.25;101349.13;5098711;28;20118;-37
2023/03/16 03:47:02;;;;;;;0.30;0.30;;;;;;;18.51;44.32;101349.13;5117369;28;20521;-37
2023/03/16 03:49:28;;;;;;;0.30;0.30;;;;;;;18.51;44.39;101346.38;5117197;28;20454;-37
2023/03/16 03:51:55;;;;;;;0.30;0.30;;;;;;;18.50;44.26;101350.22;5098223;28;20081;-38
2023/03/16 03:54:21;;;;;;;0.30;0.30;;;;;;;18.50;44.08;101348.31;5117405;28;20459;-37
2023/03/16 03:56:46;;;;;;;0.30;0.30;;;;;;;18.50;44.12;101353.00;5108727;28;20290;-37
2023/03/16 03:59:12;;;;;;;0.30;0.30;;;;;;;18.51;44.15;101354.66;5123659;27;20492;-37
2023/03/16 04:01:38;;;;;;;0.30;0.30;;;;;;;18.50;44.19;101351.06;5116989;28;20073;-37
2023/03/16 04:04:03;;;;;;;0.20;0.20;;;;;;;18.49;44.20;101352.16;5116108;28;20051;-37
2023/03/16 04:06:29;;;;;;;0.30;0.30;;;;;;;18.51;44.10;101351.91;5116708;28;20550;-37
2023/03/16 04:08:55;;;;;;;0.30;0.30;;;;;;;18.49;44.06;101346.66;5103548;28;20062;-37
2023/03/16 04:11:20;;;;;;;0.30;0.30;;;;;;;18.50;44.30;101347.47;5115829;27;20596;-37
2023/03/16 04:13:46;;;;;;;0.30;0.30;;;;;;;18.50;44.15;101339.22;5116167;28;20134;-37
2023/03/16 04:16:15;;;;;;;0.30;0.30;;;;;;;18.50;44.12;101344.72;5116092;28;20043;-37
2023/03/16 04:18:41;;;;;;;0.20;0.20;;;;;;;18.50;44.25;101336.44;5117012;28;20051;-37
2023/03/16 04:21:12;;;;;;;0.30;0.30;;;;;;;18.50;44.36;101339.22;5116315;28;20039;-37
2023/03/16 04:23:38;;;;;;;0.30;0.30;;;;;;;18.49;44.22;101332.88;5116561;27;20403;-37
2023/03/16 04:26:04;;;;;;;0.22;0.22;;;;;;;18.50;44.34;101328.16;5116644;28;20482;-37
2023/03/16 04:28:31;;;;;;;0.32;0.32;;;;;;;18.50;44.23;101325.41;5115385;28;20376;-37
2023/03/16 04:31:01;;;;;;;0.30;0.30;;;;;;;18.50;44.15;101323.47;5098581;27;20047;-37
2023/03/16 04:33:27;;;;;;;0.20;0.20;;;;;;;18.50;44.31;101322.66;5098146;28;20066;-37
2023/03/16 04:35:53;;;;;;;0.30;0.30;;;;;;;18.50;44.29;101323.47;5116305;28;20066;-37
2023/03/16 04:38:18;;;;;;;0.30;0.30;;;;;;;18.49;44.30;101318.25;5116233;28;20400;-37
2023/03/16 04:40:44;;;;;;;0.20;0.20;;;;;;;18.48;44.06;101314.66;5115703;28;20069;-37
2023/03/16 04:43:10;;;;;;;0.30;0.30;;;;;;;18.49;44.21;101312.72;5116222;28;20108;-37
2023/03/16 04:45:35;;;;;;;0.30;0.30;;;;;;;18.49;44.25;101307.22;5115329;28;20050;-37
2023/03/16 04:48:01;;;;;;;0.30;0.30;;;;;;;18.49;44.03;101312.72;5115238;28;20427;-37
2023/03/16 04:50:27;;;;;;;0.30;0.30;;;;;;;18.49;44.30;101304.47;5116134;28;20043;-37
2023/03/16 04:52:53;;;;;;;0.30;0.30;;;;;;;18.49;44.33;101310.81;5115427;28;20122;-37
2023/03/16 04:55:19;;;;;;;0.30;0.30;;;;;;;18.49;44.23;101312.72;5103534;28;20415;-37
2023/03/16 04:57:45;;;;;;;0.30;0.30;;;;;;;18.49;44.25;101312.72;5088420;28;20082;-37
2023/03/16 05:00:17;;;;;;;0.20;0.20;;;;;;;18.49;44.40;101309.97;5115792;28;20039;-37
2023/03/16 05:02:43;;;;;;;0.30;0.30;;;;;;;18.48;44.21;101306.38;5115658;28;20089;-37
2023/03/16 05:05:09;;;;;;;0.30;0.30;;;;;;;18.50;44.20;101304.19;5115227;28;20510;-37
2023/03/16 05:07:34;;;;;;;0.40;0.40;;;;;;;18.49;44.29;101304.47;5115493;28;20047;-37
2023/03/16 05:10:00;;;;;;;0.30;0.30;;;;;;;18.49;44.11;101301.69;5115519;28;20057;-37
2023/03/16 05:12:26;;;;;;;0.30;0.30;;;;;;;18.49;44.16;101296.19;5115950;28;20533;-37
2023/03/16 05:14:52;;;;;;;0.30;0.30;;;;;;;18.48;44.43;101292.59;5096373;28;20430;-37
2023/03/16 05:17:18;;;;;;;0.30;0.30;;;;;;;18.49;44.14;101294.25;5115188;28;20494;-37
2023/03/16 05:19:44;;;;;;;0.30;0.30;;;;;;;18.48;44.17;101300.00;5115143;28;20258;-37
2023/03/16 05:22:09;;;;;;;0.38;0.38;;;;;;;18.49;44.23;101308.03;5115492;27;20407;-37
2023/03/16 05:24:36;;;;;;;0.30;0.30;;;;;;;18.49;44.10;101310.81;5115407;28;20070;-37
2023/03/16 05:27:02;;;;;;;0.25;0.25;;;;;;;18.49;44.23;101305.28;5114569;28;20127;-37
2023/03/16 05:29:30;;;;;;;0.30;0.30;;;;;;;18.48;44.33;101297.25;5115045;28;20066;-37
2023/03/16 05:31:56;;;;;;;0.30;0.30;;;;;;;18.50;44.16;101306.09;5115580;27;20039;-37
2023/03/16 05:34:22;;;;;;;0.30;0.30;;;;;;;18.49;44.16;101301.69;5097026;28;20397;-37
2023/03/16 05:36:47;;;;;;;0.30;0.30;;;;;;;18.49;44.17;101293.44;5115083;28;20058;-37
2023/03/16 05:39:13;;;;;;;0.30;0.30;;;;;;;18.47;44.40;101301.94;5114120;28;20305;-37
2023/03/16 05:41:39;;;;;;;0.30;0.30;;;;;;;18.48;44.14;101300.00;5110437;28;20434;-37
2023/03/16 05:44:05;;;;;;;0.30;0.30;;;;;;;18.48;44.32;101305.53;5112204;28;20043;-37
2023/03/16 05:46:30;;;;;;;0.25;0.25;;;;;;;18.48;44.31;101302.78;5109917;28;20395;-37
2023/03/16 05:48:56;;;;;;;0.30;0.30;;;;;;;18.48;44.35;101306.38;5111275;28;20046;-36
2023/03/16 05:51:25;;;;;;;0.25;0.25;;;;;;;18.48;44.31;101300.00;5113662;27;20450;-37
2023/03/16 05:53:51;;;;;;;;;;;;;;;18.48;44.23;101303.63;5115622;28;20083;-37
2023/03/16 05:56:16;;;;;;;0.30;0.30;;;;;;;18.47;44.27;101303.88;5101656;28;19923;-37
2023/03/16 05:58:42;;;;;;;0.30;0.30;;;;;;;18.48;44.23;101311.91;5102422;27;20487;-37
2023/03/16 06:01:09;;;;;;;0.30;0.30;;;;;;;18.48;44.18;101311.03;5110952;28;20074;-37
2023/03/16 06:03:35;;;;;;;0.30;0.30;;;;;;;18.47;44.43;101315.72;5115116;28;20470;-37
2023/03/16 06:06:01;;;;;;;0.30;0.30;;;;;;;18.48;44.38;101305.53;5111897;28;20122;-37
2023/03/16 06:08:26;;;;;;;0.30;0.30;;;;;;;18.49;44.33;101304.47;5111869;28;20047;-37
2023/03/16 06:10:52;;;;;;;0.30;0.30;;;;;;;18.48;44.20;101298.13;5113761;28;20483;-37
2023/03/16 06:13:18;;;;;;;0.30;0.30;;;;;;;18.48;44.41;101305.53;5113724;28;20043;-37
2023/03/16 06:15:44;;;;;;;0.38;0.38;;;;;;;18.47;44.24;101301.94;5112805;28;20040;-37
2023/03/16 06:18:09;;;;;;;0.30;0.30;;;;;;;18.49;44.37;101304.47;5113063;28;20063;-37
2023/03/16 06:20:35;;;;;;;0.40;0.40;;;;;;;18.47;44.34;101310.22;5114177;28;20039;-37
2023/03/16 06:23:01;;;;;;;0.20;0.20;;;;;;;18.47;44.19;101307.47;5113616;28;20043;-37
2023/03/16 06:25:26;;;;;;;0.30;0.30;;;;;;;18.47;44.46;101307.47;5114026;28;20119;-37
2023/03/16 06:27:52;;;;;;;0.30;0.30;;;;;;;18.48;44.52;101316.56;5113996;28;20058;-37
2023/03/16 06:30:18;;;;;;;0.20;0.20;;;;;;;18.48;44.46;101302.78;5113453;28;20051;-37
2023/03/16 06:32:44;;;;;;;0.20;0.20;;;;;;;18.47;44.40;101315.72;5113113;27;20650;-37
2023/03/16 06:35:11;;;;;;;0.30;0.30;;;;;;;18.48;44.25;101311.03;5117918;28;20067;-37
2023/03/16 06:37:36;;;;;;;0.45;0.45;;;;;;;18.46;44.48;101308.56;5117786;28;20097;-37
2023/03/16 06:40:02;;;;;;;0.30;0.30;;;;;;;18.47;44.14;101320.41;5109881;28;20047;-37
2023/03/16 06:42:28;;;;;;;0.30;0.30;;;;;;;18.48;44.43;101322.06;5115316;28;20474;-37
2023/03/16 06:44:54;;;;;;;0.30;0.30;;;;;;;18.47;44.15;101324.00;5117398;28;20047;-38
2023/03/16 06:47:20;;;;;;;0.30;0.30;;;;;;;18.48;44.41;101322.06;5116708;28;20631;-37
2023/03/16 06:49:46;;;;;;;0.30;0.30;;;;;;;18.47;44.46;101320.41;5116429;28;20399;-37
2023/03/16 06:52:13;;;;;;;0.30;0.30;;;;;;;18.47;44.31;101312.97;5115395;28;20043;-39
2023/03/16 06:54:40;;;;;;;0.30;0.30;;;;;;;18.48;44.29;101325.69;5106787;28;20496;-37
2023/03/16 06:57:05;;;;;;;0.30;0.30;;;;;;;18.49;44.28;101321.00;5075431;28;20039;-37
2023/03/16 06:59:31;;;;;;;0.30;0.30;;;;;;;18.48;44.40;101327.59;5089130;28;20050;-38
2023/03/16 07:01:57;;;;;;;0.25;0.25;;;;;;;18.48;44.18;101319.31;5107126;28;20051;-37
2023/03/16 07:04:22;;;;;;;0.20;0.20;;;;;;;18.46;44.41;101316.84;5090025;28;20875;-37
2023/03/16 07:06:48;;;;;;;0.30;0.30;;;;;;;18.47;44.62;101315.72;5106625;28;20438;-37
2023/03/16 07:09:14;;;;;;;0.20;0.20;;;;;;;18.47;44.31;101321.25;5103441;28;20145;-37
2023/03/16 07:11:40;;;;;;;0.30;0.30;;;;;;;18.47;44.19;101321.25;5088586;28;20047;-37
2023/03/16 07:14:06;;;;;;;0.30;0.30;;;;;;;18.47;44.43;101329.53;5110003;28;20054;-37
2023/03/16 07:16:32;;;;;;;0.30;0.30;;;;;;;18.48;44.30;101324.84;5093031;28;20039;-36
2023/03/16 07:18:57;;;;;;;0.28;0.28;;;;;;;18.48;44.40;101317.41;5110059;28;20146;-37
2023/03/16 07:21:23;;;;;;;0.30;0.30;;;;;;;18.47;44.50;101323.19;5112421;28;20043;-37
2023/03/16 07:23:50;;;;;;;0.30;0.30;;;;;;;18.47;44.33;101331.44;5113333;28;20069;-37
2023/03/16 07:26:16;;;;;;;0.30;0.30;;;;;;;18.48;44.39;101341.38;5115283;28;20039;-37
2023/03/16 07:28:42;;;;;;;0.20;0.20;;;;;;;18.47;44.34;101339.72;5112527;27;20532;-37
2023/03/16 07:31:08;;;;;;;0.30;0.30;;;;;;;18.49;44.35;101340.31;5093696;28;20242;-37
2023/03/16 07:33:34;;;;;;;0.30;0.30;;;;;;;18.48;44.26;101338.63;5112848;28;20638;-37
2023/03/16 07:36:03;;;;;;;0.30;0.30;;;;;;;18.48;44.22;101341.38;5093238;28;20070;-37
2023/03/16 07:38:31;;;;;;;0.70;0.43;;;;;;;18.47;44.34;101348.00;5092716;28;20612;-37
2023/03/16 07:40:58;;;;;;;0.35;0.35;;;;;;;18.48;44.42;101342.25;5092547;28;20043;-37
2023/03/16 07:43:24;;;;;;;0.30;0.30;;;;;;;18.48;44.30;101338.63;5108032;27;20575;-37
2023/03/16 07:45:51;;;;;;;0.28;0.28;;;;;;;18.47;44.49;101326.75;5108366;27;20042;-37
2023/03/16 07:48:16;;;;;;;0.30;0.30;;;;;;;18.47;44.21;101329.53;5091426;28;20047;-37
2023/03/16 07:50:43;;;;;;;0.30;0.30;;;;;;;18.47;44.41;101335.03;5110435;28;20051;-37
2023/03/16 07:53:09;;;;;;;0.30;0.30;;;;;;;18.47;44.22;101329.53;5103378;28;20051;-37
2023/03/16 07:55:35;;;;;;;0.30;0.30;;;;;;;18.48;44.38;101330.34;5073612;28;20051;-37
2023/03/16 07:58:03;;;;;;;0.30;0.30;;;;;;;18.47;44.43;101328.69;5091528;27;20675;-37
2023/03/16 08:00:29;;;;;;;0.20;0.20;;;;;;;18.47;44.36;101332.28;5076795;27;20047;-38
2023/03/16 08:02:56;;;;;;;0.30;0.30;;;;;;;18.54;43.18;101312.75;5079798;27;20039;-37
2023/03/16 08:05:22;;;;;;;0.30;0.30;;;;;;;18.52;43.84;101331.47;5087164;27;20071;-37
2023/03/16 08:07:47;;;;;;;0.20;0.20;;;;;;;18.50;44.12;101323.47;5048897;28;20395;-37
2023/03/16 08:10:13;;;;;;;0.30;0.30;;;;;;;18.49;43.95;101313.56;5075522;27;20244;-37
2023/03/16 08:12:39;;;;;;;0.30;0.30;;;;;;;18.48;44.12;101313.81;5079104;27;20061;-37
2023/03/16 08:15:05;;;;;;;0.30;0.30;;;;;;;18.48;43.99;101317.41;5092549;28;20134;-39
2023/03/16 08:17:32;;;;;;;0.38;0.38;;;;;;;18.47;43.96;101309.41;5096242;28;20291;-39
2023/03/16 08:19:58;;;;;;;0.30;0.30;;;;;;;18.46;44.07;101296.72;5083537;27;20467;-39
2023/03/16 08:22:24;;;;;;;0.30;0.30;;;;;;;18.46;44.32;101303.06;5099283;27;20475;-40
2023/03/16 08:24:50;;;;;;;0.30;0.30;;;;;;;18.47;44.13;101312.97;5105793;27;20053;-39
2023/03/16 08:27:18;;;;;;;0.30;0.30;;;;;;;18.46;44.03;101313.25;5097776;27;20058;-39
2023/03/16 08:29:44;;;;;;;0.40;0.40;;;;;;;18.47;44.09;101306.63;5079847;27;20150;-40
2023/03/16 08:32:10;;;;;;;0.20;0.20;;;;;;;18.47;44.10;101309.41;5085804;28;20203;-40
2023/03/16 08:34:35;;;;;;;0.20;0.20;;;;;;;18.47;44.27;101321.25;5102002;27;20423;-40
2023/03/16 08:37:01;;;;;;;0.30;0.30;;;;;;;18.47;44.38;101314.91;5110087;27;20044;-39
2023/03/16 08:39:27;;;;;;;0.30;0.30;;;;;;;18.46;44.18;101313.25;5103879;27;20043;-39
2023/03/16 08:41:54;;;;;;;0.30;0.30;;;;;;;18.46;44.20;101322.34;5101389;27;20086;-39
2023/03/16 08:44:20;;;;;;;0.30;0.30;;;;;;;18.45;44.20;101317.94;5104493;27;20481;-39
2023/03/16 08:46:46;;;;;;;0.30;0.30;;;;;;;18.46;44.42;101316.00;5102939;27;20515;-39
2023/03/16 08:49:13;;;;;;;0.30;0.30;;;;;;;18.48;44.32;101319.31;5090355;27;20051;-39
2023/03/16 08:51:38;;;;;;;2.08;0.50;;;;;;;18.46;44.58;101332.56;5076445;27;20074;-39
2023/03/16 08:54:04;;;;;;;0.30;0.30;;;;;;;18.46;44.35;101327.88;5100741;27;20511;-40
2023/03/16 08:56:31;;;;;;;0.30;0.30;;;;;;;18.47;44.35;101331.44;5101362;27;20220;-39
2023/03/16 08:58:57;;;;;;;0.30;0.30;;;;;;;18.47;44.33;101328.69;5102679;27;20070;-39
2023/03/16 09:01:24;;;;;;;0.20;0.20;;;;;;;18.46;44.37;101324.28;5092046;27;20533;-39
2023/03/16 09:03:51;;;;;;;0.30;0.30;;;;;;;18.46;44.28;101316.00;5101353;27;20400;-39
2023/03/16 09:06:17;;;;;;;0.30;0.30;;;;;;;18.47;44.41;101312.97;5096060;27;20061;-39
2023/03/16 09:08:44;;;;;;;0.30;0.30;;;;;;;18.46;44.15;101316.00;5091937;27;20051;-39
2023/03/16 09:11:11;;;;;;;0.30;0.30;;;;;;;18.52;44.29;101315.78;5076325;28;20047;-39
2023/03/16 09:13:38;;;;;;;0.30;0.30;;;;;;;18.51;44.35;101319.63;5076862;27;20436;-40
2023/03/16 09:16:05;;;;;;;0.30;0.30;;;;;;;18.52;44.36;101317.69;5099657;27;20051;-39
2023/03/16 09:18:31;;;;;;;0.30;0.30;;;;;;;18.49;44.52;101305.28;5081577;28;20063;-39
2023/03/16 09:20:58;;;;;;;0.38;0.38;;;;;;;18.49;44.31;101312.72;5072421;27;20478;-40
2023/03/16 09:23:26;;;;;;;0.30;0.30;;;;;;;18.50;44.29;101311.63;5081915;28;20051;-39
2023/03/16 09:25:53;;;;;;;0.30;0.30;;;;;;;18.49;44.63;101307.22;5101481;27;20518;-39
2023/03/16 09:28:19;;;;;;;0.30;0.30;;;;;;;18.53;44.25;101313.84;5092068;27;20436;-40
2023/03/16 09:30:48;;;;;;;0.30;0.30;;;;;;;18.54;44.53;101301.72;5091477;27;20051;-39
2023/03/16 09:33:14;;;;;;;0.20;0.20;;;;;;;18.53;44.31;101300.06;5070602;27;20085;-40
2023/03/16 09:35:40;;;;;;;0.30;0.30;;;;;;;18.57;43.84;101292.91;5079057;27;20468;-39
2023/03/16 09:38:06;;;;;;;0.30;0.30;;;;;;;18.56;44.43;101281.03;5082989;27;20309;-39
2023/03/16 09:40:34;;;;;;;0.20;0.20;;;;;;;18.56;44.36;101275.50;5088370;27;21562;-39
2023/03/16 09:43:14;;;;;;;0.28;0.28;;;;;;;18.55;44.30;101273.03;5106346;27;20067;-39
2023/03/16 09:45:49;;;;;;;0.30;0.30;;;;;;;18.55;44.52;101257.31;5107997;27;20348;-39
2023/03/16 09:48:16;;;;;;;0.30;0.30;;;;;;;18.56;44.32;101260.91;5081677;28;20047;-39
2023/03/16 09:50:42;;;;;;;0.32;0.32;;;;;;;18.57;44.26;101262.56;5097575;27;20371;-39
2023/03/16 09:53:33;;;;;;;0.30;0.30;;;;;;;18.57;44.37;101254.31;5086222;28;20276;-39
2023/03/16 09:56:21;;;;;;;0.30;0.30;;;;;;;18.64;44.26;101248.53;5083711;28;20039;-39
2023/03/16 09:58:47;;;;;;;0.30;0.30;;;;;;;18.68;44.64;101246.88;5073759;27;20074;-39
2023/03/16 10:01:25;;;;;;;0.30;0.30;;;;;;;18.65;44.57;101258.44;5098231;27;20656;-39
2023/03/16 10:04:23;;;;;;;0.30;0.30;;;;;;;18.62;44.71;101251.56;5081650;27;20376;-39
2023/03/16 10:06:57;;;;;;;0.20;0.20;;;;;;;18.69;44.46;101254.06;5081693;27;20077;-45
2023/03/16 10:09:34;;;;;;;0.30;0.30;;;;;;;18.71;43.83;101260.19;5077595;28;20124;-44
2023/03/16 10:12:02;;;;;;;0.30;0.30;;;;;;;18.75;43.16;101248.34;5101162;27;20043;-41
2023/03/16 10:14:36;;;;;;;0.30;0.30;;;;;;;18.82;41.90;101253.59;5100749;27;20051;-41
2023/03/16 10:17:08;;;;;;;0.20;0.20;;;;;;;18.79;43.69;101252.22;5087504;28;20043;-39
2023/03/16 10:19:41;;;;;;;0.30;0.30;;;;;;;18.74;44.03;101254.13;5105425;27;20055;-39
2023/03/16 10:22:18;;;;;;;0.30;0.30;;;;;;;18.70;44.10;101259.34;5092560;28;20506;-39
2023/03/16 10:25:08;;;;;;;0.30;0.30;;;;;;;18.70;44.16;101247.50;5086855;27;20518;-40
2023/03/16 10:27:35;;;;;;;0.30;0.30;;;;;;;18.68;44.30;101260.69;5085162;27;20047;-39
2023/03/16 10:30:06;;;;;;;0.30;0.30;;;;;;;18.69;44.29;101254.06;5087622;27;20043;-39
2023/03/16 10:32:34;;;;;;;0.30;0.30;;;;;;;18.68;44.32;101252.41;5081567;27;20058;-39
2023/03/16 10:35:06;;;;;;;0.20;0.20;;;;;;;18.73;44.07;101246.94;5087010;28;20290;-39
2023/03/16 10:37:31;;;;;;;0.30;0.30;;;;;;;18.71;44.32;101243.63;5082903;28;20847;-39
2023/03/16 10:39:59;;;;;;;0.30;0.30;;;;;;;18.71;44.48;101236.19;5098982;28;20218;-41
2023/03/16 10:42:26;;;;;;;0.30;0.30;;;;;;;18.70;44.33;101234.53;5060829;27;20074;-39
2023/03/16 10:44:59;;;;;;;0.30;0.30;;;;;;;18.70;43.69;101220.72;5084785;27;20137;-39
2023/03/16 10:47:30;;;;;;;0.30;0.30;;;;;;;18.71;44.50;101218.81;5099449;27;20047;-39
2023/03/16 10:49:56;;;;;;;0.50;0.50;;;;;;;18.72;43.71;101225.97;5096232;27;20081;-39
2023/03/16 10:52:41;;;;;;;0.30;0.30;;;;;;;18.74;43.24;101219.09;5082694;28;20397;-39
2023/03/16 10:55:10;;;;;;;0.30;0.30;;;;;;;18.73;43.32;101211.91;5109548;27;20039;-40
2023/03/16 10:57:40;;;;;;;0.30;0.30;;;;;;;18.72;43.90;101207.47;5109269;27;20050;-39
2023/03/16 11:00:19;;;;;;;0.20;0.20;;;;;;;18.74;43.00;101194.25;5101295;27;20051;-39
2023/03/16 11:02:48;;;;;;;0.20;0.20;;;;;;;18.74;43.58;101201.72;5088419;27;20040;-39
2023/03/16 11:05:26;;;;;;;0.20;0.20;;;;;;;18.73;43.92;101202.78;5110254;27;20334;-39
2023/03/16 11:08:00;;;;;;;0.30;0.30;;;;;;;18.73;44.05;101208.31;5119705;27;20079;-39
2023/03/16 11:10:31;;;;;;;0.30;0.30;;;;;;;18.75;43.16;101203.38;5112115;27;20031;-39
2023/03/16 11:13:11;;;;;;;0.30;0.30;;;;;;;18.75;44.06;101192.31;5102777;27;20058;-39
2023/03/16 11:15:39;;;;;;;;;;;;;;;18.75;44.36;101189.56;5092631;28;20173;-39
2023/03/16 11:18:10;;;;;;;0.30;0.30;;;;;;;18.73;44.40;101186.25;5078185;28;19968;-39
2023/03/16 11:20:37;;;;;;;0.30;0.30;;;;;;;18.73;44.06;101194.50;5100545;27;20036;-39
2023/03/16 11:23:05;;;;;;;0.30;0.30;;;;;;;18.76;42.91;101181.00;5105503;27;20766;-39
2023/03/16 11:25:40;;;;;;;0.20;0.20;;;;;;;18.76;43.53;101186.53;5103497;27;20078;-39
2023/03/16 11:28:14;;;;;;;0.30;0.30;;;;;;;18.78;43.37;101166.94;5081651;28;20108;-39
2023/03/16 11:31:19;;;;;;;0.30;0.30;;;;;;;18.78;43.32;101167.78;5096089;27;20044;-39
2023/03/16 11:33:46;;;;;;;0.30;0.30;;;;;;;18.76;42.47;101169.97;5093081;27;20420;-42